Yellow Pine, ID

5:05 AM MDT on September 15, 2014 (GMT -0600)
Lowell | Change Station
CLOSE
Current Station
Airport
Location: Lowell,
Elevation: 1480 ft
Nearby Weather Stations

Elev 1480 ft 46.14 °N, 115.60 °W | Updated 13 minutes ago

Clear
Clear
45 °F
Feels Like 44 °F
N
4
Wind Variable Wind from NNW
Gusts 4 mph

Today
High -- | Low -- °F
--% Chance of Precip.
Yesterday
High -- | Low -- °F
Precip. -- in
7:20 AM 7:52 PM
Waning Gibbous, 56% visible
Pressure 30.06 in
Visibility -9999.0 miles
Clouds
Windchill 44 °F
Dew Point 41 °F
Humidity 86%
Rainfall 0.00 in
Snow Depth 1 in , 0 in , 0 in
UV Not available.
Pollen 6.60 out of 12
Air Quality Not available.
Flu Activity Not available.
METAR KP69 151052Z AUTO 33003KT 07/05 A3009 RMK AO1 SLP179 T00720050

More Conditions Fewer Conditions

Pressure 30.06 in
Visibility -9999.0 miles
Clouds
Windchill 44 °F
Dew Point 41 °F
Humidity 86%
Rainfall 0.00 in
Snow Depth 1 in , 0 in , 0 in
UV Not available.
Pollen 6.60 out of 12
Air Quality Not available.
Flu Activity Not available.
METAR KP69 151052Z AUTO 33003KT 07/05 A3009 RMK AO1 SLP179 T00720050

More Conditions Fewer Conditions

10-Day Weather Forecast

Almanac

Astronomy

Sep. 15, 2014 Rise Set
Actual Time 7:20 AM MDT 7:52 PM MDT
Civil Twilight 6:50 AM MDT 8:21 PM MDT
Nautical Twilight 6:15 AM MDT 8:56 PM MDT
Astronomical Twilight 5:39 AM MDT 9:32 PM MDT
Moon No Moon Rise 2:39 PM MDT
Length of Visible Light 13h 30m
Length of Day
12h 31m
Tomorrow will be 3m 6s shorter.
Waning Gibbous, 56% of the Moon is Illuminated
Today
Waning Gibbous
Sep 15
Last Quarter
Sep 24
New
Oct 1
First Quarter
Oct 8
Full

Today's Extremes

State Highs State Lows

Community

WunderPhotos

Upload Photos

1,753,429 photos uploaded!

Nearby

Snow Depth

Station Depth Elevation
Mica Creek 1 in 4750 ft
Hyndman 0 in 7440 ft
Lost-Wood Divide 0 in 7900 ft
Lookout 0 in 5140 ft
Mud Flat 1 in 5730 ft

Earthquake Activity

City Distance Mag. Time & Date
No recent earthquake activity has been reported nearby.
Minimum magnitude displayed is 2.5.

Coastal Water Temperatures

Place Temperature
No Stations Reporting

Nearby Weather Stations